createdAt,value
2018-07-26T00:00:06.070Z,19.30
2018-07-26T00:02:33.665Z,19.30
2018-07-26T00:07:29.392Z,19.20
2018-07-26T00:09:57.402Z,19.20
2018-07-26T00:12:25.651Z,19.20
2018-07-26T00:14:53.305Z,19.20
2018-07-26T00:17:21.014Z,19.20
2018-07-26T00:19:48.711Z,19.20
2018-07-26T00:22:16.390Z,19.10
2018-07-26T00:24:44.702Z,19.00
2018-07-26T00:27:12.804Z,19.10
2018-07-26T00:29:40.837Z,19.00
2018-07-26T00:32:08.470Z,19.00
2018-07-26T00:34:37.054Z,18.90
2018-07-26T00:37:04.966Z,18.90
2018-07-26T00:39:32.778Z,18.90
2018-07-26T00:42:00.345Z,18.80
2018-07-26T00:44:27.983Z,18.70
2018-07-26T00:46:55.542Z,18.70
2018-07-26T00:49:23.145Z,18.70
2018-07-26T00:51:50.719Z,18.70
2018-07-26T00:54:18.329Z,18.70
2018-07-26T00:56:45.919Z,18.60
2018-07-26T00:59:13.705Z,18.50
2018-07-26T01:01:41.374Z,18.50
2018-07-26T01:04:09.054Z,18.50
2018-07-26T01:06:36.608Z,18.50
2018-07-26T01:09:07.534Z,18.40
2018-07-26T01:11:35.159Z,18.40
2018-07-26T01:14:03.277Z,18.40
2018-07-26T01:16:30.903Z,18.40
2018-07-26T01:21:26.497Z,18.20
2018-07-26T01:23:54.079Z,18.10
2018-07-26T01:26:21.717Z,18.00
2018-07-26T01:28:49.986Z,17.90
2018-07-26T01:31:17.681Z,17.90
2018-07-26T01:33:45.406Z,17.90
2018-07-26T01:36:13.697Z,17.90
2018-07-26T01:38:41.349Z,18.00
2018-07-26T01:41:09.075Z,18.00
2018-07-26T01:43:49.297Z,18.00
2018-07-26T01:46:18.160Z,18.00
2018-07-26T01:48:45.766Z,18.00
2018-07-26T01:51:14.329Z,17.90
2018-07-26T01:53:42.746Z,17.80
2018-07-26T01:56:10.469Z,17.90
2018-07-26T01:58:38.072Z,17.80
2018-07-26T02:01:07.357Z,17.80
2018-07-26T02:03:35.028Z,17.70
2018-07-26T02:06:02.905Z,17.70
2018-07-26T02:08:30.870Z,17.70
2018-07-26T02:10:59.525Z,17.70
2018-07-26T02:13:27.275Z,17.70
2018-07-26T02:15:55.599Z,17.60
2018-07-26T02:18:23.272Z,17.60
2018-07-26T02:20:52.043Z,17.50
2018-07-26T02:23:20.292Z,17.60
2018-07-26T02:25:48.242Z,17.60
2018-07-26T02:28:17.595Z,17.50
2018-07-26T02:30:45.817Z,17.50
2018-07-26T02:33:13.564Z,17.40
2018-07-26T02:35:41.832Z,17.40
2018-07-26T02:38:09.796Z,17.40
2018-07-26T02:40:37.686Z,17.30
2018-07-26T02:43:06.096Z,17.40
2018-07-26T02:45:33.917Z,17.40
2018-07-26T02:48:01.503Z,17.30
2018-07-26T02:50:29.194Z,17.30
2018-07-26T02:52:56.870Z,17.20
2018-07-26T02:55:24.530Z,17.30
2018-07-26T02:57:52.179Z,17.20
2018-07-26T03:00:19.835Z,17.10
2018-07-26T03:02:47.394Z,17.10
2018-07-26T03:05:15.770Z,17.10
2018-07-26T03:07:43.354Z,17.00
2018-07-26T03:10:11.016Z,17.00
2018-07-26T03:12:38.684Z,17.00
2018-07-26T03:15:07.173Z,16.90
2018-07-26T03:17:34.860Z,16.90
2018-07-26T03:20:02.742Z,16.90
2018-07-26T03:22:31.401Z,16.90
2018-07-26T03:24:59.083Z,16.90
2018-07-26T03:27:26.723Z,16.90
2018-07-26T03:29:54.992Z,16.90
2018-07-26T03:32:23.273Z,16.90
2018-07-26T03:34:50.916Z,16.90
2018-07-26T03:37:18.503Z,16.90
2018-07-26T03:39:46.068Z,16.80
2018-07-26T03:42:13.830Z,16.80
2018-07-26T03:44:41.401Z,16.80
2018-07-26T03:47:09.038Z,16.70
2018-07-26T03:49:36.607Z,16.70
2018-07-26T03:52:04.570Z,16.70
2018-07-26T03:54:32.166Z,16.70
2018-07-26T03:56:59.741Z,16.70
2018-07-26T03:59:27.566Z,16.80
2018-07-26T04:01:55.205Z,16.70
2018-07-26T04:04:23.011Z,16.70
2018-07-26T04:06:50.616Z,16.70
2018-07-26T04:09:18.270Z,16.60
2018-07-26T04:11:46.366Z,16.70
2018-07-26T04:14:14.120Z,16.70
2018-07-26T04:16:41.689Z,16.70
2018-07-26T04:19:10.326Z,16.90
2018-07-26T04:21:39.493Z,17.00
2018-07-26T04:24:07.251Z,16.90
2018-07-26T04:26:35.661Z,16.90
2018-07-26T04:29:03.858Z,16.90
2018-07-26T04:31:31.517Z,17.00
2018-07-26T04:33:59.192Z,17.00
2018-07-26T04:36:26.801Z,17.20
2018-07-26T04:38:54.461Z,17.30
2018-07-26T04:41:22.501Z,17.40
2018-07-26T04:43:50.075Z,17.50
2018-07-26T04:46:17.661Z,17.60
2018-07-26T04:48:45.767Z,17.80
2018-07-26T04:51:14.061Z,17.90
2018-07-26T04:53:42.046Z,18.00
2018-07-26T04:56:09.645Z,18.20
2018-07-26T04:58:37.345Z,18.30
2018-07-26T05:01:05.666Z,18.40
2018-07-26T05:03:33.280Z,18.60
2018-07-26T05:06:00.933Z,18.70
2018-07-26T05:08:28.517Z,18.90
2018-07-26T05:10:56.164Z,19.00
2018-07-26T05:13:24.363Z,19.20
2018-07-26T05:20:54.005Z,19.70
2018-07-26T05:25:49.160Z,19.90
2018-07-26T05:28:16.809Z,20.10
2018-07-26T05:30:44.414Z,20.20
2018-07-26T05:33:12.042Z,20.40
2018-07-26T05:35:39.782Z,20.50
2018-07-26T05:38:07.337Z,20.60
2018-07-26T05:40:35.057Z,20.80
2018-07-26T05:43:02.717Z,21.00
2018-07-26T05:45:30.292Z,21.10
2018-07-26T05:47:57.957Z,21.30
2018-07-26T05:50:25.626Z,21.50
2018-07-26T05:52:55.390Z,21.70
2018-07-26T05:55:22.967Z,21.90
2018-07-26T05:57:50.578Z,22.20
2018-07-26T06:00:18.228Z,22.40
2018-07-26T06:02:45.992Z,22.70
2018-07-26T06:05:14.500Z,22.90
2018-07-26T06:07:42.090Z,23.10
2018-07-26T06:10:09.768Z,23.30
2018-07-26T06:12:39.450Z,23.50
2018-07-26T06:15:09.701Z,23.70
2018-07-26T06:17:37.444Z,23.80
2018-07-26T06:20:07.057Z,24.10
2018-07-26T06:22:34.670Z,24.30
2018-07-26T06:25:03.003Z,24.40
2018-07-26T06:27:30.605Z,24.60
2018-07-26T06:29:58.313Z,25.10
2018-07-26T06:32:25.998Z,25.50
2018-07-26T06:34:53.567Z,26.30
2018-07-26T06:37:21.253Z,26.80
2018-07-26T06:39:48.990Z,27.40
2018-07-26T06:42:16.602Z,27.70
2018-07-26T06:44:44.160Z,27.80
2018-07-26T06:47:13.079Z,28.30
2018-07-26T06:49:41.322Z,28.50
2018-07-26T06:52:08.982Z,28.50
2018-07-26T06:54:36.625Z,28.80
2018-07-26T06:57:04.233Z,28.80
2018-07-26T06:59:31.933Z,28.00
2018-07-26T07:01:59.754Z,27.80
2018-07-26T07:04:27.426Z,28.00
2018-07-26T07:06:55.044Z,28.40
2018-07-26T07:11:51.407Z,28.80
2018-07-26T07:14:19.688Z,29.70
2018-07-26T07:16:47.310Z,29.80
2018-07-26T07:19:14.933Z,30.60
2018-07-26T07:21:43.229Z,30.40
2018-07-26T07:24:15.586Z,30.30
2018-07-26T07:26:43.249Z,30.60
2018-07-26T07:29:11.606Z,30.90
2018-07-26T07:34:07.625Z,32.50
2018-07-26T07:36:36.177Z,33.80
2018-07-26T07:39:06.437Z,34.70
2018-07-26T07:41:34.009Z,35.50
2018-07-26T07:44:01.732Z,36.10
2018-07-26T07:46:29.367Z,36.40
2018-07-26T07:48:58.023Z,36.50
2018-07-26T07:51:25.706Z,35.90
2018-07-26T07:53:53.940Z,35.50
2018-07-26T07:56:21.772Z,35.10
2018-07-26T07:58:49.537Z,35.90
2018-07-26T08:01:17.122Z,36.00
2018-07-26T08:03:45.315Z,33.70
2018-07-26T08:06:13.595Z,33.10
2018-07-26T08:08:41.192Z,32.20
2018-07-26T08:11:09.571Z,32.20
2018-07-26T08:13:37.477Z,33.10
2018-07-26T08:16:05.660Z,33.60
2018-07-26T08:18:33.909Z,34.10
2018-07-26T08:21:01.611Z,35.00
2018-07-26T08:23:29.247Z,34.00
2018-07-26T08:25:57.808Z,32.50
2018-07-26T08:28:26.188Z,31.90
2018-07-26T08:30:53.888Z,31.90
2018-07-26T08:33:21.484Z,31.80
2018-07-26T08:35:49.145Z,31.30
2018-07-26T08:38:16.853Z,32.00
2018-07-26T08:40:44.565Z,31.90
2018-07-26T08:43:12.179Z,31.50
2018-07-26T08:45:40.461Z,31.00
2018-07-26T08:48:08.147Z,31.00
2018-07-26T08:50:35.775Z,30.20
2018-07-26T08:53:03.461Z,30.30
2018-07-26T08:55:31.066Z,30.30
2018-07-26T08:57:58.910Z,30.60
2018-07-26T09:00:26.739Z,31.30
2018-07-26T09:02:54.510Z,32.10
2018-07-26T09:07:49.674Z,31.60
2018-07-26T09:10:17.382Z,32.50
2018-07-26T09:12:44.982Z,32.60
2018-07-26T09:15:13.266Z,32.90
2018-07-26T09:17:40.946Z,33.60
2018-07-26T09:20:08.590Z,32.30
2018-07-26T09:22:36.428Z,31.90
2018-07-26T09:25:04.084Z,31.90
2018-07-26T09:27:31.750Z,31.20
2018-07-26T09:29:59.573Z,31.50
2018-07-26T09:32:27.152Z,30.60
2018-07-26T09:34:54.802Z,29.90
2018-07-26T09:39:50.187Z,30.80
2018-07-26T09:42:17.806Z,30.60
2018-07-26T09:44:45.446Z,29.10
2018-07-26T09:47:13.182Z,28.60
2018-07-26T09:49:40.771Z,29.50
2018-07-26T09:52:08.564Z,29.80
2018-07-26T09:54:36.214Z,31.00
2018-07-26T09:57:03.822Z,31.50
2018-07-26T09:59:31.388Z,31.40
2018-07-26T10:01:58.969Z,31.30
2018-07-26T10:04:26.601Z,32.30
2018-07-26T10:06:54.247Z,32.20
2018-07-26T10:11:49.991Z,32.00
2018-07-26T10:16:45.083Z,32.80
2018-07-26T10:19:12.667Z,31.50
2018-07-26T10:21:40.331Z,30.90
2018-07-26T10:24:08.626Z,31.60
2018-07-26T10:26:36.390Z,32.00
2018-07-26T10:29:04.831Z,32.10
2018-07-26T10:44:37.054Z,32.80
2018-07-26T10:47:05.273Z,33.10
2018-07-26T10:49:32.989Z,32.40
2018-07-26T10:52:00.522Z,31.60
2018-07-26T10:54:28.207Z,31.60
2018-07-26T10:56:55.874Z,32.40
2018-07-26T10:59:24.160Z,32.50
2018-07-26T11:01:51.900Z,32.80
2018-07-26T11:04:19.603Z,33.70
2018-07-26T11:06:48.018Z,34.10
2018-07-26T11:09:15.581Z,34.60
2018-07-26T11:11:43.270Z,34.40
2018-07-26T11:14:10.837Z,33.90
2018-07-26T11:16:38.849Z,34.60
2018-07-26T11:19:06.780Z,34.20
2018-07-26T11:21:34.385Z,33.10
2018-07-26T11:24:02.157Z,32.70
2018-07-26T11:26:29.898Z,31.70
2018-07-26T11:28:58.753Z,32.20
2018-07-26T11:31:26.480Z,32.60
2018-07-26T11:33:54.022Z,32.40
2018-07-26T11:36:21.757Z,32.80
2018-07-26T11:38:49.579Z,33.20
2018-07-26T11:41:17.380Z,34.00
2018-07-26T11:43:45.028Z,34.20
2018-07-26T11:46:12.778Z,32.60
2018-07-26T11:48:41.088Z,33.10
2018-07-26T11:51:09.129Z,33.10
2018-07-26T11:53:36.778Z,34.30
2018-07-26T11:56:04.674Z,34.70
2018-07-26T11:58:32.333Z,34.70
2018-07-26T12:00:59.989Z,35.40
2018-07-26T12:03:28.569Z,34.20
2018-07-26T12:05:56.286Z,32.40
2018-07-26T12:08:24.041Z,32.70
2018-07-26T12:10:51.716Z,32.30
2018-07-26T12:13:19.374Z,32.70
2018-07-26T12:15:47.422Z,33.80
2018-07-26T12:18:15.153Z,34.00
2018-07-26T12:20:43.253Z,34.20
2018-07-26T12:23:11.504Z,34.00
2018-07-26T12:25:39.387Z,32.80
2018-07-26T12:28:08.138Z,32.60
2018-07-26T12:30:35.943Z,31.90
2018-07-26T12:33:03.591Z,32.80
2018-07-26T12:35:31.165Z,33.00
2018-07-26T12:37:58.737Z,34.10
2018-07-26T12:40:26.768Z,35.20
2018-07-26T12:42:54.827Z,35.40
2018-07-26T12:45:22.394Z,34.80
2018-07-26T12:47:50.020Z,35.20
2018-07-26T12:50:17.705Z,35.60
2018-07-26T12:52:45.310Z,35.50
2018-07-26T12:55:13.379Z,34.40
2018-07-26T12:57:40.991Z,34.00
2018-07-26T13:00:08.617Z,34.50
2018-07-26T13:02:36.250Z,34.40
2018-07-26T13:05:03.962Z,34.00
2018-07-26T13:07:31.648Z,34.30
2018-07-26T13:09:59.270Z,35.30
2018-07-26T13:12:27.036Z,37.40
2018-07-26T13:14:54.718Z,38.10
2018-07-26T13:41:53.823Z,38.80
2018-07-26T13:44:21.462Z,39.80
2018-07-26T13:46:49.070Z,38.80
2018-07-26T13:49:17.438Z,38.50
2018-07-26T13:51:45.083Z,38.30
2018-07-26T13:54:13.100Z,33.50
2018-07-26T13:56:41.574Z,33.90
2018-07-26T13:59:09.195Z,35.30
2018-07-26T14:01:37.014Z,36.60
2018-07-26T14:04:04.777Z,37.00
2018-07-26T14:06:32.503Z,37.90
2018-07-26T14:09:00.312Z,38.20
2018-07-26T14:11:27.944Z,37.60
2018-07-26T14:13:55.557Z,37.80
2018-07-26T14:16:23.374Z,38.10
2018-07-26T14:18:50.996Z,37.20
2018-07-26T14:21:18.652Z,36.60
2018-07-26T14:23:51.153Z,36.00
2018-07-26T14:26:18.777Z,35.70
2018-07-26T14:28:46.350Z,37.70
2018-07-26T14:31:13.957Z,39.20
2018-07-26T14:33:41.725Z,40.00
2018-07-26T14:36:09.337Z,40.30
2018-07-26T14:41:11.532Z,38.30
2018-07-26T14:43:39.176Z,37.80
2018-07-26T14:46:07.233Z,37.00
2018-07-26T14:51:03.593Z,38.10
2018-07-26T14:53:31.174Z,38.50
2018-07-26T14:55:58.856Z,39.30
2018-07-26T14:58:26.681Z,39.40
2018-07-26T15:00:54.412Z,39.80
2018-07-26T15:03:22.247Z,38.70
2018-07-26T15:05:49.985Z,38.60
2018-07-26T15:08:17.608Z,36.60
2018-07-26T15:10:48.497Z,36.50
2018-07-26T15:13:18.929Z,37.40
2018-07-26T15:15:46.533Z,37.50
2018-07-26T15:18:14.126Z,37.30
2018-07-26T15:20:42.074Z,36.70
2018-07-26T15:23:09.642Z,36.20
2018-07-26T15:25:37.211Z,37.00
2018-07-26T15:28:05.615Z,38.30
2018-07-26T15:30:33.917Z,39.20
2018-07-26T15:33:01.499Z,40.00
2018-07-26T15:35:29.113Z,40.80
2018-07-26T15:37:56.808Z,40.70
2018-07-26T15:40:24.463Z,38.90
2018-07-26T15:42:52.109Z,37.10
2018-07-26T15:45:19.686Z,36.60
2018-07-26T15:47:47.507Z,36.80
2018-07-26T15:50:15.290Z,37.20
2018-07-26T15:52:42.945Z,37.30
2018-07-26T15:55:10.698Z,35.50
2018-07-26T15:57:38.342Z,34.40
2018-07-26T16:00:08.958Z,34.00
2018-07-26T16:02:36.769Z,33.10
2018-07-26T16:05:05.045Z,32.30
2018-07-26T16:07:32.615Z,31.50
2018-07-26T16:10:00.900Z,31.30
2018-07-26T16:12:28.697Z,31.50
2018-07-26T16:14:56.290Z,31.70
2018-07-26T16:17:24.120Z,31.70
2018-07-26T16:19:51.754Z,31.70
2018-07-26T16:22:20.038Z,31.70
2018-07-26T16:24:48.293Z,31.60
2018-07-26T16:27:15.879Z,31.60
2018-07-26T16:29:44.037Z,31.50
2018-07-26T16:32:11.773Z,31.40
2018-07-26T16:34:40.958Z,31.30
2018-07-26T16:37:08.846Z,31.30
2018-07-26T16:39:36.557Z,31.40
2018-07-26T16:42:04.212Z,31.30
2018-07-26T16:44:31.890Z,31.20
2018-07-26T16:47:00.190Z,31.10
2018-07-26T16:49:28.630Z,30.60
2018-07-26T16:51:56.197Z,30.40
2018-07-26T16:54:23.942Z,30.50
2018-07-26T16:56:51.528Z,30.50
2018-07-26T16:59:19.241Z,30.10
2018-07-26T17:01:46.893Z,30.20
2018-07-26T17:04:14.507Z,30.30
2018-07-26T17:06:42.228Z,30.30
2018-07-26T17:09:10.757Z,30.40
2018-07-26T17:11:38.597Z,30.30
2018-07-26T17:14:08.491Z,30.40
2018-07-26T17:16:38.465Z,30.20
2018-07-26T17:19:06.143Z,29.70
2018-07-26T17:21:33.734Z,29.60
2018-07-26T17:24:02.133Z,29.60
2018-07-26T17:26:30.647Z,29.40
2018-07-26T17:28:58.383Z,29.10
2018-07-26T17:31:26.309Z,29.20
2018-07-26T17:33:54.364Z,29.10
2018-07-26T17:36:22.001Z,28.90
2018-07-26T17:38:50.610Z,28.90
2018-07-26T17:41:19.019Z,28.90
2018-07-26T17:43:46.788Z,28.90
2018-07-26T17:46:14.341Z,28.90
2018-07-26T17:48:41.982Z,28.80
2018-07-26T17:51:09.551Z,28.70
2018-07-26T17:53:37.198Z,28.70
2018-07-26T17:56:05.625Z,28.70
2018-07-26T17:58:33.213Z,28.80
2018-07-26T18:01:00.997Z,28.70
2018-07-26T18:03:28.722Z,28.50
2018-07-26T18:05:56.324Z,28.60
2018-07-26T18:08:24.035Z,28.60
2018-07-26T18:10:52.467Z,28.50
2018-07-26T18:13:20.303Z,28.40
2018-07-26T18:15:47.880Z,28.30
2018-07-26T18:18:17.217Z,28.30
2018-07-26T18:20:44.938Z,28.20
2018-07-26T18:23:13.067Z,28.10
2018-07-26T18:25:41.489Z,27.90
2018-07-26T18:28:09.471Z,27.90
2018-07-26T18:30:37.093Z,27.80
2018-07-26T18:33:04.949Z,27.70
2018-07-26T18:35:33.306Z,27.60
2018-07-26T18:38:01.877Z,27.60
2018-07-26T18:40:29.472Z,27.50
2018-07-26T18:42:57.115Z,27.60
2018-07-26T18:45:24.924Z,27.50
2018-07-26T18:47:52.699Z,27.40
2018-07-26T18:50:20.342Z,27.20
2018-07-26T18:52:47.980Z,27.00
2018-07-26T18:55:15.607Z,26.80
2018-07-26T18:57:43.300Z,26.60
2018-07-26T19:00:12.749Z,26.50
2018-07-26T19:02:40.945Z,26.40
2018-07-26T19:05:09.132Z,26.20
2018-07-26T19:07:37.599Z,26.00
2018-07-26T19:10:07.289Z,25.80
2018-07-26T19:12:35.793Z,25.70
2018-07-26T19:15:04.964Z,25.50
2018-07-26T19:17:33.583Z,25.30
2018-07-26T19:20:01.193Z,25.20
2018-07-26T19:22:28.841Z,25.10
2018-07-26T19:24:56.457Z,25.00
2018-07-26T19:27:24.742Z,24.90
2018-07-26T19:29:52.373Z,24.80
2018-07-26T19:34:48.249Z,24.60
2018-07-26T19:37:16.131Z,24.50
